Time,TemperatureF,DewpointF,PressureIn,WindDirection,WindDirectionDegrees,WindSpeedMPH,WindSpeedGustMPH,Humidity,HourlyPrecipIn,Conditions,Clouds,dailyrainin,SoftwareType,DateUTC
2013-03-03 00:00:00,26.0,18.8,30.08,North,7,2.0,2.0,74,0.00,,,0.00,Wunderground v.1.15,2013-03-03 05:00:00,
2013-03-03 00:01:00,26.0,18.8,30.08,North,7,2.0,13.0,74,0.00,,,0.00,Wunderground v.1.15,2013-03-03 05:01:00,
2013-03-03 00:04:00,25.8,17.7,30.08,WNW,295,2.0,13.0,71,0.00,,,0.00,Wunderground v.1.15,2013-03-03 05:04:00,
2013-03-03 00:09:00,25.7,17.3,30.08,NNW,346,3.0,13.0,70,0.00,,,0.00,Wunderground v.1.15,2013-03-03 05:09:00,
2013-03-03 00:10:00,25.7,17.6,30.08,NNW,346,3.0,3.0,71,0.00,,,0.00,Wunderground v.1.15,2013-03-03 05:10:00,
2013-03-03 00:15:00,25.7,16.9,30.08,North,10,3.0,7.0,69,0.00,,,0.00,Wunderground v.1.15,2013-03-03 05:15:00,
2013-03-03 00:20:00,25.7,17.3,30.08,North,3,2.0,2.0,70,0.00,,,0.00,Wunderground v.1.15,2013-03-03 05:20:00,
2013-03-03 00:26:00,25.6,16.8,30.08,NNW,332,2.0,4.0,69,0.00,,,0.00,Wunderground v.1.15,2013-03-03 05:26:00,
2013-03-03 00:31:00,25.4,16.3,30.08,NNW,346,3.0,6.0,68,0.00,,,0.00,Wunderground v.1.15,2013-03-03 05:31:00,
2013-03-03 00:36:00,25.4,16.0,30.08,NNE,13,3.0,6.0,67,0.00,,,0.00,Wunderground v.1.15,2013-03-03 05:36:00,
2013-03-03 00:42:00,25.3,16.2,30.08,NE,54,2.0,7.0,68,0.00,,,0.00,Wunderground v.1.15,2013-03-03 05:42:00,
2013-03-03 00:47:00,25.1,16.4,30.08,NW,323,3.0,7.0,69,0.00,,,0.00,Wunderground v.1.15,2013-03-03 05:47:00,
2013-03-03 00:53:00,25.1,16.4,30.08,North,0,4.0,4.0,69,0.00,,,0.00,Wunderground v.1.15,2013-03-03 05:53:00,
2013-03-03 00:58:00,25.0,16.6,30.08,NNW,333,3.0,6.0,70,0.00,,,0.00,Wunderground v.1.15,2013-03-03 05:58:00,
2013-03-03 01:04:00,25.0,15.9,30.08,NNE,25,3.0,12.0,68,0.00,,,0.00,Wunderground v.1.15,2013-03-03 06:04:00,
2013-03-03 01:10:00,25.0,15.9,30.08,North,350,3.0,3.0,68,0.00,,,0.00,Wunderground v.1.15,2013-03-03 06:10:00,
2013-03-03 01:16:00,24.8,16.1,30.08,North,350,4.0,7.0,69,0.00,,,0.00,Wunderground v.1.15,2013-03-03 06:16:00,
2013-03-03 01:21:00,24.7,16.0,30.08,WNW,292,4.0,5.0,69,0.00,,,0.00,Wunderground v.1.15,2013-03-03 06:21:00,
2013-03-03 01:27:00,24.7,16.0,30.08,NNW,333,4.0,5.0,69,0.00,,,0.00,Wunderground v.1.15,2013-03-03 06:27:00,
2013-03-03 01:32:00,24.7,16.0,30.08,North,7,3.0,11.0,69,0.00,,,0.00,Wunderground v.1.15,2013-03-03 06:32:00,
2013-03-03 01:38:00,24.5,15.8,30.08,NW,316,3.0,11.0,69,0.00,,,0.00,Wunderground v.1.15,2013-03-03 06:38:00,
2013-03-03 01:43:00,24.5,15.4,30.08,NNW,335,3.0,5.0,68,0.00,,,0.00,Wunderground v.1.15,2013-03-03 06:43:00,
2013-03-03 01:49:00,24.4,16.0,30.07,North,356,2.0,6.0,70,0.00,,,0.00,Wunderground v.1.15,2013-03-03 06:49:00,
2013-03-03 01:54:00,24.4,15.7,30.07,NE,49,1.0,6.0,69,0.00,,,0.00,Wunderground v.1.15,2013-03-03 06:54:00,
2013-03-03 02:00:00,24.4,16.0,30.08,NNW,337,1.0,2.0,70,0.00,,,0.00,Wunderground v.1.15,2013-03-03 07:00:00,
2013-03-03 02:05:00,24.2,15.5,30.08,NNE,20,2.0,10.0,69,0.00,,,0.00,Wunderground v.1.15,2013-03-03 07:05:00,
2013-03-03 02:11:00,24.2,15.2,30.08,NW,320,2.0,2.0,68,0.00,,,0.00,Wunderground v.1.15,2013-03-03 07:11:00,
2013-03-03 02:16:00,24.1,15.4,30.07,NW,320,1.0,3.0,69,0.00,,,0.00,Wunderground v.1.15,2013-03-03 07:16:00,
2013-03-03 02:22:00,24.1,15.4,30.07,North,0,1.0,2.0,69,0.00,,,0.00,Wunderground v.1.15,2013-03-03 07:22:00,
2013-03-03 02:27:00,23.9,15.5,30.07,North,1,1.0,2.0,70,0.00,,,0.00,Wunderground v.1.15,2013-03-03 07:27:00,
2013-03-03 02:33:00,23.8,15.1,30.07,North,6,1.0,2.0,69,0.00,,,0.00,Wunderground v.1.15,2013-03-03 07:33:00,
2013-03-03 02:38:00,23.8,15.1,30.07,NNE,17,2.0,5.0,69,0.00,,,0.00,Wunderground v.1.15,2013-03-03 07:38:00,
2013-03-03 02:44:00,23.6,15.2,30.07,NNE,16,1.0,4.0,70,0.00,,,0.00,Wunderground v.1.15,2013-03-03 07:44:00,
2013-03-03 02:50:00,23.5,15.1,30.07,NNE,16,1.0,1.0,70,0.00,,,0.00,Wunderground v.1.15,2013-03-03 07:50:00,
2013-03-03 02:55:00,23.5,15.5,30.07,North,3,1.0,3.0,71,0.00,,,0.00,Wunderground v.1.15,2013-03-03 07:55:00,
2013-03-03 03:01:00,23.3,15.3,30.07,North,0,1.0,10.0,71,0.00,,,0.00,Wunderground v.1.15,2013-03-03 08:01:00,
2013-03-03 03:06:00,23.3,15.3,30.07,North,0,1.0,10.0,71,0.00,,,0.00,Wunderground v.1.15,2013-03-03 08:06:00,
2013-03-03 03:12:00,23.2,14.9,30.07,NNE,23,2.0,2.0,70,0.00,,,0.00,Wunderground v.1.15,2013-03-03 08:12:00,
2013-03-03 03:17:00,23.2,15.2,30.06,North,0,1.0,2.0,71,0.00,,,0.00,Wunderground v.1.15,2013-03-03 08:17:00,
2013-03-03 03:23:00,23.2,15.2,30.06,NNE,23,1.0,1.0,71,0.00,,,0.00,Wunderground v.1.15,2013-03-03 08:23:00,
2013-03-03 03:29:00,23.0,15.0,30.06,North,0,1.0,2.0,71,0.00,,,0.00,Wunderground v.1.15,2013-03-03 08:29:00,
2013-03-03 03:34:00,22.9,15.2,30.06,North,0,0.0,1.0,72,0.00,,,0.00,Wunderground v.1.15,2013-03-03 08:34:00,
2013-03-03 03:39:00,22.7,15.0,30.06,North,0,0.0,1.0,72,0.00,,,0.00,Wunderground v.1.15,2013-03-03 08:39:00,
2013-03-03 03:45:00,22.5,14.8,30.06,North,0,0.0,0.0,72,0.00,,,0.00,Wunderground v.1.15,2013-03-03 08:45:00,
2013-03-03 03:50:00,22.4,14.7,30.06,North,0,0.0,0.0,72,0.00,,,0.00,Wunderground v.1.15,2013-03-03 08:50:00,
2013-03-03 03:56:00,22.2,14.9,30.06,North,0,0.0,0.0,73,0.00,,,0.00,Wunderground v.1.15,2013-03-03 08:56:00,
2013-03-03 04:01:00,22.2,15.2,30.06,North,0,0.0,6.0,74,0.00,,,0.00,Wunderground v.1.15,2013-03-03 09:01:00,
2013-03-03 04:07:00,21.9,14.6,30.06,North,0,0.0,6.0,73,0.00,,,0.00,Wunderground v.1.15,2013-03-03 09:07:00,
2013-03-03 04:13:00,21.8,14.8,30.06,North,0,0.0,0.0,74,0.00,,,0.00,Wunderground v.1.15,2013-03-03 09:13:00,
2013-03-03 04:18:00,21.6,14.9,30.05,North,0,0.0,0.0,75,0.00,,,0.00,Wunderground v.1.15,2013-03-03 09:18:00,
2013-03-03 04:24:00,21.4,14.7,30.05,North,0,0.0,0.0,75,0.00,,,0.00,Wunderground v.1.15,2013-03-03 09:24:00,
2013-03-03 04:29:00,21.3,14.9,30.05,North,0,0.0,0.0,76,0.00,,,0.00,Wunderground v.1.15,2013-03-03 09:29:00,
2013-03-03 04:34:00,21.0,14.6,30.05,North,0,0.0,0.0,76,0.00,,,0.00,Wunderground v.1.15,2013-03-03 09:34:00,
2013-03-03 04:40:00,20.8,14.4,30.05,North,0,0.0,0.0,76,0.00,,,0.00,Wunderground v.1.15,2013-03-03 09:40:00,
2013-03-03 04:46:00,20.5,14.1,30.05,North,0,0.0,0.0,76,0.00,,,0.00,Wunderground v.1.15,2013-03-03 09:46:00,
2013-03-03 04:51:00,20.2,13.8,30.05,North,0,0.0,0.0,76,0.00,,,0.00,Wunderground v.1.15,2013-03-03 09:51:00,
2013-03-03 04:57:00,19.9,13.9,30.05,North,0,0.0,0.0,77,0.00,,,0.00,Wunderground v.1.15,2013-03-03 09:57:00,
2013-03-03 05:02:00,19.7,13.7,30.05,North,0,0.0,3.0,77,0.00,,,0.00,Wunderground v.1.15,2013-03-03 10:02:00,
2013-03-03 05:09:00,19.5,14.0,30.05,North,0,0.0,3.0,79,0.00,,,0.00,Wunderground v.1.15,2013-03-03 10:09:00,
2013-03-03 05:14:00,19.2,14.0,30.05,North,0,0.0,0.0,80,0.00,,,0.00,Wunderground v.1.15,2013-03-03 10:14:00,
2013-03-03 05:20:00,19.1,13.9,30.05,North,0,0.0,0.0,80,0.00,,,0.00,Wunderground v.1.15,2013-03-03 10:20:00,
2013-03-03 05:25:00,18.9,14.0,30.05,North,0,0.0,0.0,81,0.00,,,0.00,Wunderground v.1.15,2013-03-03 10:25:00,
2013-03-03 05:31:00,18.8,14.2,30.05,North,0,0.0,0.0,82,0.00,,,0.00,Wunderground v.1.15,2013-03-03 10:31:00,
2013-03-03 05:36:00,18.8,14.5,30.05,North,0,0.0,0.0,83,0.00,,,0.00,Wunderground v.1.15,2013-03-03 10:36:00,
2013-03-03 05:42:00,18.8,14.8,30.05,North,0,0.0,0.0,84,0.00,,,0.00,Wunderground v.1.15,2013-03-03 10:42:00,
2013-03-03 05:47:00,18.8,15.0,30.06,North,0,0.0,0.0,85,0.00,,,0.00,Wunderground v.1.15,2013-03-03 10:47:00,
2013-03-03 05:54:00,18.8,15.3,30.06,North,0,0.0,0.0,86,0.00,,,0.00,Wunderground v.1.15,2013-03-03 10:54:00,
2013-03-03 05:59:00,18.6,15.4,30.06,North,0,0.0,0.0,87,0.00,,,0.00,Wunderground v.1.15,2013-03-03 10:59:00,
2013-03-03 06:04:00,18.8,15.8,30.06,North,0,0.0,0.0,88,0.00,,,0.00,Wunderground v.1.15,2013-03-03 11:04:00,
2013-03-03 06:10:00,18.9,16.2,30.06,North,0,0.0,0.0,89,0.00,,,0.00,Wunderground v.1.15,2013-03-03 11:10:00,
2013-03-03 06:16:00,18.9,16.2,30.06,North,0,0.0,0.0,89,0.00,,,0.00,Wunderground v.1.15,2013-03-03 11:16:00,
2013-03-03 06:22:00,18.9,16.2,30.06,North,0,0.0,0.0,89,0.00,,,0.00,Wunderground v.1.15,2013-03-03 11:22:00,
2013-03-03 06:27:00,18.9,16.2,30.06,North,0,0.0,0.0,89,0.00,,,0.00,Wunderground v.1.15,2013-03-03 11:27:00,
2013-03-03 06:33:00,19.1,16.4,30.06,North,0,0.0,0.0,89,0.00,,,0.00,Wunderground v.1.15,2013-03-03 11:33:00,
2013-03-03 06:39:00,19.1,16.1,30.06,North,0,0.0,0.0,88,0.00,,,0.00,Wunderground v.1.15,2013-03-03 11:39:00,
2013-03-03 06:44:00,19.2,16.2,30.06,North,0,0.0,0.0,88,0.00,,,0.00,Wunderground v.1.15,2013-03-03 11:44:00,
2013-03-03 06:49:00,19.4,16.2,30.07,North,0,0.0,0.0,87,0.00,,,0.00,Wunderground v.1.15,2013-03-03 11:49:00,
2013-03-03 06:55:00,19.5,16.3,30.07,North,0,0.0,0.0,87,0.00,,,0.00,Wunderground v.1.15,2013-03-03 11:55:00,
2013-03-03 07:00:00,19.5,16.0,30.07,North,0,0.0,0.0,86,0.00,,,0.00,Wunderground v.1.15,2013-03-03 12:00:00,
2013-03-03 07:06:00,19.7,16.2,30.07,North,0,0.0,0.0,86,0.00,,,0.00,Wunderground v.1.15,2013-03-03 12:06:00,
2013-03-03 07:11:00,19.7,16.2,30.07,North,0,0.0,0.0,86,0.00,,,0.00,Wunderground v.1.15,2013-03-03 12:11:00,
2013-03-03 07:16:00,19.7,16.2,30.07,North,0,0.0,0.0,86,0.00,,,0.00,Wunderground v.1.15,2013-03-03 12:16:00,
2013-03-03 07:22:00,19.9,15.8,30.07,North,0,0.0,0.0,84,0.00,,,0.00,Wunderground v.1.15,2013-03-03 12:22:00,
2013-03-03 07:27:00,20.0,15.7,30.07,North,0,0.0,0.0,83,0.00,,,0.00,Wunderground v.1.15,2013-03-03 12:27:00,
2013-03-03 07:34:00,20.3,15.7,30.07,North,0,0.0,0.0,82,0.00,,,0.00,Wunderground v.1.15,2013-03-03 12:34:00,
2013-03-03 07:39:00,20.5,15.6,30.07,North,0,0.0,0.0,81,0.00,,,0.00,Wunderground v.1.15,2013-03-03 12:39:00,
2013-03-03 07:44:00,20.6,15.1,30.07,North,0,0.0,0.0,79,0.00,,,0.00,Wunderground v.1.15,2013-03-03 12:44:00,
2013-03-03 07:50:00,20.8,15.3,30.08,North,0,0.0,0.0,79,0.00,,,0.00,Wunderground v.1.15,2013-03-03 12:50:00,
2013-03-03 07:55:00,20.8,15.3,30.08,North,0,0.0,0.0,79,0.00,,,0.00,Wunderground v.1.15,2013-03-03 12:55:00,
2013-03-03 08:00:00,21.0,15.2,30.08,North,0,0.0,0.0,78,0.00,,,0.00,Wunderground v.1.15,2013-03-03 13:00:00,
2013-03-03 08:06:00,21.1,15.3,30.08,North,0,0.0,0.0,78,0.00,,,0.00,Wunderground v.1.15,2013-03-03 13:06:00,
2013-03-03 08:11:00,21.3,15.2,30.08,North,0,0.0,0.0,77,0.00,,,0.00,Wunderground v.1.15,2013-03-03 13:11:00,
2013-03-03 08:17:00,21.4,15.0,30.08,North,0,0.0,1.0,76,0.00,,,0.00,Wunderground v.1.15,2013-03-03 13:17:00,
2013-03-03 08:22:00,21.6,15.2,30.08,North,0,0.0,0.0,76,0.00,,,0.00,Wunderground v.1.15,2013-03-03 13:22:00,
2013-03-03 08:29:00,21.4,14.4,30.08,North,0,0.0,1.0,74,0.00,,,0.00,Wunderground v.1.15,2013-03-03 13:29:00,
2013-03-03 08:34:00,21.4,14.4,30.08,North,0,1.0,3.0,74,0.00,,,0.00,Wunderground v.1.15,2013-03-03 13:34:00,
2013-03-03 08:39:00,21.3,14.3,30.08,North,0,1.0,3.0,74,0.00,,,0.00,Wunderground v.1.15,2013-03-03 13:39:00,
2013-03-03 08:45:00,21.4,14.7,30.08,North,0,1.0,1.0,75,0.00,,,0.00,Wunderground v.1.15,2013-03-03 13:45:00,
2013-03-03 08:50:00,21.8,15.4,30.08,North,0,0.0,0.0,76,0.00,,,0.00,Wunderground v.1.15,2013-03-03 13:50:00,
2013-03-03 08:55:00,21.9,14.9,30.08,North,0,0.0,0.0,74,0.00,,,0.00,Wunderground v.1.15,2013-03-03 13:55:00,
2013-03-03 09:01:00,22.1,14.8,30.08,North,0,0.0,2.0,73,0.00,,,0.00,Wunderground v.1.15,2013-03-03 14:01:00,
2013-03-03 09:07:00,22.1,14.8,30.08,North,0,0.0,2.0,73,0.00,,,0.00,Wunderground v.1.15,2013-03-03 14:07:00,
2013-03-03 09:12:00,22.4,15.1,30.08,North,0,0.0,0.0,73,0.00,,,0.00,Wunderground v.1.15,2013-03-03 14:12:00,
2013-03-03 09:18:00,22.7,14.7,30.08,North,0,0.0,0.0,71,0.00,,,0.00,Wunderground v.1.15,2013-03-03 14:18:00,
2013-03-03 09:24:00,22.9,14.6,30.08,North,0,1.0,2.0,70,0.00,,,0.00,Wunderground v.1.15,2013-03-03 14:24:00,
2013-03-03 09:29:00,23.0,14.7,30.08,North,0,1.0,2.0,70,0.00,,,0.00,Wunderground v.1.15,2013-03-03 14:29:00,
2013-03-03 09:34:00,23.2,14.5,30.08,North,0,0.0,1.0,69,0.00,,,0.00,Wunderground v.1.15,2013-03-03 14:34:00,
2013-03-03 09:39:00,23.5,15.1,30.08,North,0,0.0,1.0,70,0.00,,,0.00,Wunderground v.1.15,2013-03-03 14:39:00,
2013-03-03 09:45:00,23.5,14.8,30.08,North,0,1.0,2.0,69,0.00,,,0.00,Wunderground v.1.15,2013-03-03 14:45:00,
2013-03-03 09:50:00,23.6,14.9,30.08,North,0,0.0,0.0,69,0.00,,,0.00,Wunderground v.1.15,2013-03-03 14:50:00,
2013-03-03 09:56:00,23.9,14.9,30.08,North,0,0.0,1.0,68,0.00,,,0.00,Wunderground v.1.15,2013-03-03 14:56:00,
2013-03-03 10:01:00,24.2,15.2,30.08,North,0,0.0,3.0,68,0.00,,,0.00,Wunderground v.1.15,2013-03-03 15:01:00,
2013-03-03 10:07:00,24.5,15.1,30.08,North,0,0.0,3.0,67,0.00,,,0.00,Wunderground v.1.15,2013-03-03 15:07:00,
2013-03-03 10:12:00,24.8,15.7,30.08,WNW,294,1.0,1.0,68,0.00,,,0.00,Wunderground v.1.15,2013-03-03 15:12:00,
2013-03-03 10:18:00,25.0,15.6,30.08,WNW,294,1.0,1.0,67,0.00,,,0.00,Wunderground v.1.15,2013-03-03 15:18:00,
2013-03-03 10:24:00,25.7,16.6,30.08,SSE,155,1.0,3.0,68,0.00,,,0.00,Wunderground v.1.15,2013-03-03 15:24:00,
2013-03-03 10:29:00,25.8,16.3,30.08,SSE,155,1.0,5.0,67,0.00,,,0.00,Wunderground v.1.15,2013-03-03 15:29:00,
2013-03-03 10:35:00,25.8,16.7,30.07,SSE,155,1.0,3.0,68,0.00,,,0.00,Wunderground v.1.15,2013-03-03 15:35:00,
2013-03-03 10:40:00,25.4,17.0,30.07,West,260,2.0,5.0,70,0.00,,,0.00,Wunderground v.1.15,2013-03-03 15:40:00,
2013-03-03 10:45:00,25.4,17.0,30.07,West,260,2.0,5.0,70,0.00,,,0.00,Wunderground v.1.15,2013-03-03 15:45:00,
2013-03-03 10:51:00,25.6,17.2,30.07,West,260,1.0,1.0,70,0.00,,,0.00,Wunderground v.1.15,2013-03-03 15:51:00,
2013-03-03 10:57:00,26.0,17.6,30.07,WSW,247,1.0,3.0,70,0.00,,,0.00,Wunderground v.1.15,2013-03-03 15:57:00,
2013-03-03 11:02:00,26.6,18.1,30.07,WSW,248,1.0,2.0,70,0.00,,,0.00,Wunderground v.1.15,2013-03-03 16:02:00,
2013-03-03 11:08:00,26.6,17.5,30.07,West,265,1.0,5.0,68,0.00,,,0.00,Wunderground v.1.15,2013-03-03 16:08:00,
2013-03-03 11:14:00,26.7,17.6,30.07,WSW,253,2.0,2.0,68,0.00,,,0.00,Wunderground v.1.15,2013-03-03 16:14:00,
2013-03-03 11:19:00,26.7,17.9,30.07,West,271,2.0,7.0,69,0.00,,,0.00,Wunderground v.1.15,2013-03-03 16:19:00,
2013-03-03 11:24:00,27.2,18.0,30.07,NW,315,3.0,4.0,68,0.00,,,0.00,Wunderground v.1.15,2013-03-03 16:24:00,
2013-03-03 11:30:00,27.0,17.8,30.07,NW,309,2.0,6.0,68,0.00,,,0.00,Wunderground v.1.15,2013-03-03 16:30:00,
2013-03-03 11:35:00,27.5,17.6,30.07,West,271,3.0,6.0,66,0.00,,,0.00,Wunderground v.1.15,2013-03-03 16:35:00,
2013-03-03 11:41:00,27.3,17.4,30.07,SW,233,4.0,6.0,66,0.00,,,0.00,Wunderground v.1.15,2013-03-03 16:41:00,
2013-03-03 11:46:00,27.2,17.7,30.06,WSW,250,5.0,6.0,67,0.00,,,0.00,Wunderground v.1.15,2013-03-03 16:46:00,
2013-03-03 11:52:00,27.6,18.1,30.06,WNW,287,3.0,7.0,67,0.00,,,0.00,Wunderground v.1.15,2013-03-03 16:52:00,
2013-03-03 11:58:00,27.8,17.2,30.06,WSW,251,3.0,7.0,64,0.00,,,0.00,Wunderground v.1.15,2013-03-03 16:58:00,
2013-03-03 12:04:00,27.9,16.6,30.06,WSW,258,3.0,10.0,62,0.00,,,0.00,Wunderground v.1.15,2013-03-03 17:04:00,
2013-03-03 12:09:00,27.9,16.2,30.06,West,260,5.0,10.0,61,0.00,,,0.00,Wunderground v.1.15,2013-03-03 17:09:00,
2013-03-03 12:15:00,27.8,16.8,30.06,WSW,239,5.0,7.0,63,0.00,,,0.00,Wunderground v.1.15,2013-03-03 17:15:00,
2013-03-03 12:21:00,27.6,15.5,30.06,WNW,284,6.0,6.0,60,0.00,,,0.00,Wunderground v.1.15,2013-03-03 17:21:00,
2013-03-03 12:26:00,27.8,16.5,30.06,WSW,244,6.0,10.0,62,0.00,,,0.00,Wunderground v.1.15,2013-03-03 17:26:00,
2013-03-03 12:32:00,27.6,16.6,30.05,WSW,258,5.0,5.0,63,0.00,,,0.00,Wunderground v.1.15,2013-03-03 17:32:00,
2013-03-03 12:37:00,27.5,16.9,30.05,WSW,248,6.0,12.0,64,0.00,,,0.00,Wunderground v.1.15,2013-03-03 17:37:00,
2013-03-03 12:43:00,27.8,16.5,30.05,West,280,6.0,7.0,62,0.00,,,0.00,Wunderground v.1.15,2013-03-03 17:43:00,
2013-03-03 12:48:00,27.8,16.5,30.05,West,275,6.0,8.0,62,0.00,,,0.00,Wunderground v.1.15,2013-03-03 17:48:00,
2013-03-03 12:54:00,27.6,16.3,30.05,SW,236,5.0,6.0,62,0.00,,,0.00,Wunderground v.1.15,2013-03-03 17:54:00,
2013-03-03 12:59:00,27.8,16.8,30.05,SW,232,5.0,11.0,63,0.00,,,0.00,Wunderground v.1.15,2013-03-03 17:59:00,
2013-03-03 13:05:00,28.1,16.4,30.05,SW,232,6.0,10.0,61,0.00,,,0.00,Wunderground v.1.15,2013-03-03 18:05:00,
2013-03-03 13:11:00,28.8,16.6,30.05,WSW,243,6.0,11.0,60,0.00,,,0.00,Wunderground v.1.15,2013-03-03 18:11:00,
2013-03-03 13:16:00,28.4,16.3,30.04,West,278,8.0,12.0,60,0.00,,,0.00,Wunderground v.1.15,2013-03-03 18:16:00,
2013-03-03 13:22:00,28.1,16.7,30.04,West,260,7.0,7.0,62,0.00,,,0.00,Wunderground v.1.15,2013-03-03 18:22:00,
2013-03-03 13:27:00,28.5,16.7,30.04,NW,320,5.0,9.0,61,0.00,,,0.00,Wunderground v.1.15,2013-03-03 18:27:00,
2013-03-03 13:33:00,28.8,13.8,30.04,WSW,239,6.0,11.0,53,0.00,,,0.00,Wunderground v.1.15,2013-03-03 18:33:00,
2013-03-03 13:38:00,28.5,12.2,30.04,West,272,7.0,11.0,50,0.00,,,0.00,Wunderground v.1.15,2013-03-03 18:38:00,
2013-03-03 13:43:00,28.7,14.1,30.04,West,275,7.0,7.0,54,0.00,,,0.00,Wunderground v.1.15,2013-03-03 18:43:00,
2013-03-03 13:49:00,28.8,14.2,30.03,WSW,256,6.0,8.0,54,0.00,,,0.00,Wunderground v.1.15,2013-03-03 18:49:00,
2013-03-03 13:54:00,29.0,14.4,30.03,West,261,5.0,6.0,54,0.00,,,0.00,Wunderground v.1.15,2013-03-03 18:54:00,
2013-03-03 14:00:00,29.4,14.8,30.03,West,274,6.0,10.0,54,0.00,,,0.00,Wunderground v.1.15,2013-03-03 19:00:00,
2013-03-03 14:06:00,28.7,13.3,30.03,WSW,256,7.0,13.0,52,0.00,,,0.00,Wunderground v.1.15,2013-03-03 19:06:00,
2013-03-03 14:12:00,28.7,14.1,30.03,WNW,287,6.0,13.0,54,0.00,,,0.00,Wunderground v.1.15,2013-03-03 19:12:00,
2013-03-03 14:17:00,29.4,15.6,30.03,West,263,7.0,13.0,56,0.00,,,0.00,Wunderground v.1.15,2013-03-03 19:17:00,
2013-03-03 14:23:00,29.1,14.9,30.03,WNW,294,6.0,8.0,55,0.00,,,0.00,Wunderground v.1.15,2013-03-03 19:23:00,
2013-03-03 14:28:00,28.8,12.9,30.03,NW,305,6.0,12.0,51,0.00,,,0.00,Wunderground v.1.15,2013-03-03 19:28:00,
2013-03-03 14:33:00,28.5,13.9,30.03,WNW,282,7.0,12.0,54,0.00,,,0.00,Wunderground v.1.15,2013-03-03 19:33:00,
2013-03-03 14:39:00,28.4,14.3,30.03,NNW,347,7.0,13.0,55,0.00,,,0.00,Wunderground v.1.15,2013-03-03 19:39:00,
2013-03-03 14:44:00,28.4,13.0,30.03,NW,311,7.0,10.0,52,0.00,,,0.00,Wunderground v.1.15,2013-03-03 19:44:00,
2013-03-03 14:50:00,28.8,14.6,30.03,SW,232,6.0,10.0,55,0.00,,,0.00,Wunderground v.1.15,2013-03-03 19:50:00,
2013-03-03 14:55:00,29.0,14.0,30.03,NW,305,6.0,7.0,53,0.00,,,0.00,Wunderground v.1.15,2013-03-03 19:55:00,
2013-03-03 15:00:00,28.7,15.0,30.03,WSW,256,6.0,12.0,56,0.00,,,0.00,Wunderground v.1.15,2013-03-03 20:00:00,
2013-03-03 15:06:00,28.5,13.9,30.03,SW,232,7.0,14.0,54,0.00,,,0.00,Wunderground v.1.15,2013-03-03 20:06:00,
2013-03-03 15:11:00,28.7,15.8,30.03,West,268,7.0,7.0,58,0.00,,,0.00,Wunderground v.1.15,2013-03-03 20:11:00,
2013-03-03 15:17:00,29.4,16.8,30.03,West,261,7.0,10.0,59,0.00,,,0.00,Wunderground v.1.15,2013-03-03 20:17:00,
2013-03-03 15:22:00,29.5,17.3,30.03,WSW,246,5.0,6.0,60,0.00,,,0.00,Wunderground v.1.15,2013-03-03 20:22:00,
2013-03-03 15:28:00,28.2,14.9,30.03,WSW,253,6.0,12.0,57,0.00,,,0.00,Wunderground v.1.15,2013-03-03 20:28:00,
2013-03-03 15:33:00,28.1,14.8,30.03,SW,233,7.0,12.0,57,0.00,,,0.00,Wunderground v.1.15,2013-03-03 20:33:00,
2013-03-03 15:39:00,28.4,15.5,30.03,West,271,7.0,12.0,58,0.00,,,0.00,Wunderground v.1.15,2013-03-03 20:39:00,
2013-03-03 15:45:00,27.9,15.0,30.03,West,268,7.0,15.0,58,0.00,,,0.00,Wunderground v.1.15,2013-03-03 20:45:00,
2013-03-03 15:50:00,27.9,15.0,30.03,West,270,7.0,8.0,58,0.00,,,0.00,Wunderground v.1.15,2013-03-03 20:50:00,
2013-03-03 15:56:00,28.2,16.1,30.03,SW,234,6.0,8.0,60,0.00,,,0.00,Wunderground v.1.15,2013-03-03 20:56:00,
2013-03-03 16:01:00,27.8,14.9,30.03,West,281,5.0,14.0,58,0.00,,,0.00,Wunderground v.1.15,2013-03-03 21:01:00,
2013-03-03 16:07:00,27.8,15.7,30.03,WNW,285,6.0,14.0,60,0.00,,,0.00,Wunderground v.1.15,2013-03-03 21:07:00,
2013-03-03 16:13:00,27.2,15.9,30.03,WNW,284,7.0,8.0,62,0.00,,,0.00,Wunderground v.1.15,2013-03-03 21:13:00,
2013-03-03 16:18:00,27.0,15.3,30.04,West,271,6.0,8.0,61,0.00,,,0.00,Wunderground v.1.15,2013-03-03 21:18:00,
2013-03-03 16:24:00,27.2,15.9,30.04,WSW,250,5.0,6.0,62,0.00,,,0.00,Wunderground v.1.15,2013-03-03 21:24:00,
2013-03-03 16:29:00,27.9,15.4,30.04,NNW,336,5.0,7.0,59,0.00,,,0.00,Wunderground v.1.15,2013-03-03 21:29:00,
2013-03-03 16:35:00,28.4,15.9,30.03,West,263,5.0,10.0,59,0.00,,,0.00,Wunderground v.1.15,2013-03-03 21:35:00,
2013-03-03 16:41:00,28.5,16.0,30.03,West,275,5.0,5.0,59,0.00,,,0.00,Wunderground v.1.15,2013-03-03 21:41:00,
2013-03-03 16:46:00,28.1,15.2,30.04,West,275,6.0,11.0,58,0.00,,,0.00,Wunderground v.1.15,2013-03-03 21:46:00,
2013-03-03 16:52:00,28.4,15.9,30.04,WSW,244,5.0,7.0,59,0.00,,,0.00,Wunderground v.1.15,2013-03-03 21:52:00,
2013-03-03 16:57:00,28.7,16.6,30.04,West,265,5.0,7.0,60,0.00,,,0.00,Wunderground v.1.15,2013-03-03 21:57:00,
2013-03-03 17:03:00,28.5,16.7,30.04,WSW,258,5.0,16.0,61,0.00,,,0.00,Wunderground v.1.15,2013-03-03 22:03:00,
2013-03-03 17:09:00,28.1,15.6,30.04,SSW,210,4.0,16.0,59,0.00,,,0.00,Wunderground v.1.15,2013-03-03 22:09:00,
2013-03-03 17:14:00,27.8,16.5,30.04,SW,234,6.0,10.0,62,0.00,,,0.00,Wunderground v.1.15,2013-03-03 22:14:00,
2013-03-03 17:20:00,27.8,16.5,30.04,West,281,6.0,6.0,62,0.00,,,0.00,Wunderground v.1.15,2013-03-03 22:20:00,
2013-03-03 17:25:00,28.2,16.8,30.04,SSW,203,4.0,6.0,62,0.00,,,0.00,Wunderground v.1.15,2013-03-03 22:25:00,
2013-03-03 17:31:00,27.9,16.6,30.04,WNW,292,5.0,5.0,62,0.00,,,0.00,Wunderground v.1.15,2013-03-03 22:31:00,
2013-03-03 17:36:00,27.9,17.6,30.04,WSW,253,6.0,8.0,65,0.00,,,0.00,Wunderground v.1.15,2013-03-03 22:36:00,
2013-03-03 17:42:00,27.6,16.6,30.04,SW,216,5.0,7.0,63,0.00,,,0.00,Wunderground v.1.15,2013-03-03 22:42:00,
2013-03-03 17:48:00,27.6,16.3,30.04,SW,236,5.0,8.0,62,0.00,,,0.00,Wunderground v.1.15,2013-03-03 22:48:00,
2013-03-03 17:53:00,27.3,15.2,30.04,West,274,6.0,10.0,60,0.00,,,0.00,Wunderground v.1.15,2013-03-03 22:53:00,
2013-03-03 17:59:00,27.3,16.0,30.04,SSW,212,7.0,10.0,62,0.00,,,0.00,Wunderground v.1.15,2013-03-03 22:59:00,
2013-03-03 18:04:00,27.2,16.6,30.05,WSW,241,5.0,12.0,64,0.00,,,0.00,Wunderground v.1.15,2013-03-03 23:04:00,
2013-03-03 18:10:00,27.3,17.1,30.05,SW,219,3.0,5.0,65,0.00,,,0.00,Wunderground v.1.15,2013-03-03 23:10:00,
2013-03-03 18:16:00,27.2,17.0,30.05,SSW,200,4.0,8.0,65,0.00,,,0.00,Wunderground v.1.15,2013-03-03 23:16:00,
2013-03-03 18:21:00,27.0,16.4,30.05,West,272,4.0,5.0,64,0.00,,,0.00,Wunderground v.1.15,2013-03-03 23:21:00,
2013-03-03 18:26:00,27.0,16.8,30.05,West,264,4.0,6.0,65,0.00,,,0.00,Wunderground v.1.15,2013-03-03 23:26:00,
2013-03-03 18:32:00,27.0,16.4,30.05,West,271,4.0,5.0,64,0.00,,,0.00,Wunderground v.1.15,2013-03-03 23:32:00,
2013-03-03 18:37:00,27.0,16.8,30.05,WNW,289,4.0,6.0,65,0.00,,,0.00,Wunderground v.1.15,2013-03-03 23:37:00,
2013-03-03 18:43:00,27.0,16.8,30.05,SW,236,4.0,4.0,65,0.00,,,0.00,Wunderground v.1.15,2013-03-03 23:43:00,
2013-03-03 18:49:00,26.9,16.3,30.05,West,272,3.0,7.0,64,0.00,,,0.00,Wunderground v.1.15,2013-03-03 23:49:00,
2013-03-03 18:54:00,26.9,16.3,30.05,WSW,241,3.0,3.0,64,0.00,,,0.00,Wunderground v.1.15,2013-03-03 23:54:00,
2013-03-03 19:00:00,26.7,16.1,30.05,West,272,3.0,7.0,64,0.00,,,0.00,Wunderground v.1.15,2013-03-04 00:00:00,
2013-03-03 19:05:00,26.7,16.1,30.05,West,272,3.0,16.0,64,0.00,,,0.00,Wunderground v.1.15,2013-03-04 00:05:00,
2013-03-03 19:11:00,26.7,16.1,30.05,West,272,3.0,3.0,64,0.00,,,0.00,Wunderground v.1.15,2013-03-04 00:11:00,
2013-03-03 19:17:00,26.6,16.4,30.05,West,263,2.0,3.0,65,0.00,,,0.00,Wunderground v.1.15,2013-03-04 00:17:00,
2013-03-03 19:22:00,26.6,16.4,30.05,West,263,2.0,4.0,65,0.00,,,0.00,Wunderground v.1.15,2013-03-04 00:22:00,
2013-03-03 19:28:00,26.6,16.4,30.05,West,278,2.0,4.0,65,0.00,,,0.00,Wunderground v.1.15,2013-03-04 00:28:00,
2013-03-03 19:34:00,26.6,16.4,30.06,WNW,288,3.0,5.0,65,0.00,,,0.00,Wunderground v.1.15,2013-03-04 00:34:00,
2013-03-03 19:39:00,26.7,16.9,30.06,NW,319,4.0,7.0,66,0.00,,,0.00,Wunderground v.1.15,2013-03-04 00:39:00,
2013-03-03 19:44:00,26.6,16.8,30.06,West,278,3.0,5.0,66,0.00,,,0.00,Wunderground v.1.15,2013-03-04 00:44:00,
2013-03-03 19:50:00,26.6,16.1,30.06,WSW,257,4.0,4.0,64,0.00,,,0.00,Wunderground v.1.15,2013-03-04 00:50:00,
2013-03-03 19:55:00,26.4,15.9,30.06,West,261,4.0,5.0,64,0.00,,,0.00,Wunderground v.1.15,2013-03-04 00:55:00,
2013-03-03 20:01:00,26.4,16.6,30.06,WNW,298,3.0,11.0,66,0.00,,,0.00,Wunderground v.1.15,2013-03-04 01:01:00,
2013-03-03 20:07:00,26.3,16.1,30.06,WNW,289,2.0,11.0,65,0.00,,,0.00,Wunderground v.1.15,2013-03-04 01:07:00,
2013-03-03 20:12:00,26.3,16.1,30.06,WNW,289,2.0,3.0,65,0.00,,,0.00,Wunderground v.1.15,2013-03-04 01:12:00,
2013-03-03 20:19:00,26.1,16.3,30.06,West,281,2.0,6.0,66,0.00,,,0.00,Wunderground v.1.15,2013-03-04 01:19:00,
2013-03-03 20:24:00,26.1,15.9,30.06,West,264,3.0,3.0,65,0.00,,,0.00,Wunderground v.1.15,2013-03-04 01:24:00,
2013-03-03 20:29:00,26.1,15.9,30.06,West,260,3.0,6.0,65,0.00,,,0.00,Wunderground v.1.15,2013-03-04 01:29:00,
2013-03-03 20:34:00,26.1,16.3,30.06,SW,229,2.0,3.0,66,0.00,,,0.00,Wunderground v.1.15,2013-03-04 01:34:00,
2013-03-03 20:40:00,26.1,17.0,30.06,SW,229,1.0,1.0,68,0.00,,,0.00,Wunderground v.1.15,2013-03-04 01:40:00,
2013-03-03 20:45:00,26.3,16.8,30.06,West,274,2.0,5.0,67,0.00,,,0.00,Wunderground v.1.15,2013-03-04 01:45:00,
2013-03-03 20:51:00,26.3,17.2,30.06,West,272,3.0,3.0,68,0.00,,,0.00,Wunderground v.1.15,2013-03-04 01:51:00,
2013-03-03 20:56:00,26.3,16.8,30.06,West,272,3.0,3.0,67,0.00,,,0.00,Wunderground v.1.15,2013-03-04 01:56:00,
2013-03-03 21:02:00,26.4,16.9,30.07,West,280,2.0,11.0,67,0.00,,,0.00,Wunderground v.1.15,2013-03-04 02:02:00,
2013-03-03 21:09:00,26.4,16.9,30.07,WSW,239,3.0,11.0,67,0.00,,,0.00,Wunderground v.1.15,2013-03-04 02:09:00,
2013-03-03 21:14:00,26.4,16.6,30.07,WSW,257,4.0,6.0,66,0.00,,,0.00,Wunderground v.1.15,2013-03-04 02:14:00,
2013-03-03 21:19:00,26.3,17.2,30.06,West,281,4.0,6.0,68,0.00,,,0.00,Wunderground v.1.15,2013-03-04 02:19:00,
2013-03-03 21:24:00,26.3,16.8,30.06,WNW,285,3.0,3.0,67,0.00,,,0.00,Wunderground v.1.15,2013-03-04 02:24:00,
2013-03-03 21:30:00,26.3,16.8,30.06,West,263,3.0,7.0,67,0.00,,,0.00,Wunderground v.1.15,2013-03-04 02:30:00,
2013-03-03 21:35:00,26.3,16.5,30.06,West,261,4.0,7.0,66,0.00,,,0.00,Wunderground v.1.15,2013-03-04 02:35:00,
2013-03-03 21:41:00,26.1,16.6,30.06,West,272,3.0,3.0,67,0.00,,,0.00,Wunderground v.1.15,2013-03-04 02:41:00,
2013-03-03 21:46:00,26.0,16.5,30.06,WNW,302,3.0,6.0,67,0.00,,,0.00,Wunderground v.1.15,2013-03-04 02:46:00,
2013-03-03 21:52:00,25.8,16.3,30.06,West,264,3.0,3.0,67,0.00,,,0.00,Wunderground v.1.15,2013-03-04 02:52:00,
2013-03-03 21:57:00,25.8,16.0,30.06,WNW,291,2.0,4.0,66,0.00,,,0.00,Wunderground v.1.15,2013-03-04 02:57:00,
2013-03-03 22:04:00,25.8,16.3,30.06,WNW,291,1.0,8.0,67,0.00,,,0.00,Wunderground v.1.15,2013-03-04 03:04:00,
2013-03-03 22:09:00,26.0,16.9,30.06,WNW,291,1.0,8.0,68,0.00,,,0.00,Wunderground v.1.15,2013-03-04 03:09:00,
2013-03-03 22:15:00,26.0,16.9,30.06,WNW,291,1.0,2.0,68,0.00,,,0.00,Wunderground v.1.15,2013-03-04 03:15:00,
2013-03-03 22:20:00,26.1,17.0,30.06,West,272,2.0,8.0,68,0.00,,,0.00,Wunderground v.1.15,2013-03-04 03:20:00,
2013-03-03 22:26:00,26.3,16.8,30.06,West,270,4.0,8.0,67,0.00,,,0.00,Wunderground v.1.15,2013-03-04 03:26:00,
2013-03-03 22:31:00,26.1,17.3,30.05,West,270,3.0,4.0,69,0.00,,,0.00,Wunderground v.1.15,2013-03-04 03:31:00,
2013-03-03 22:37:00,26.1,17.6,30.05,West,270,1.0,4.0,70,0.00,,,0.00,Wunderground v.1.15,2013-03-04 03:37:00,
2013-03-03 22:42:00,26.3,17.8,30.05,West,274,1.0,1.0,70,0.00,,,0.00,Wunderground v.1.15,2013-03-04 03:42:00,
2013-03-03 22:49:00,26.3,17.8,30.05,West,270,2.0,3.0,70,0.00,,,0.00,Wunderground v.1.15,2013-03-04 03:49:00,
2013-03-03 22:54:00,26.3,17.2,30.05,WNW,289,3.0,4.0,68,0.00,,,0.00,Wunderground v.1.15,2013-03-04 03:54:00,
2013-03-03 22:59:00,26.1,16.6,30.05,WNW,299,3.0,5.0,67,0.00,,,0.00,Wunderground v.1.15,2013-03-04 03:59:00,
2013-03-03 23:04:00,26.1,17.0,30.06,West,271,3.0,8.0,68,0.00,,,0.00,Wunderground v.1.15,2013-03-04 04:04:00,
2013-03-03 23:09:00,26.3,17.5,30.06,West,260,4.0,9.0,69,0.00,,,0.00,Wunderground v.1.15,2013-03-04 04:09:00,
2013-03-03 23:14:00,26.3,17.2,30.06,West,265,5.0,7.0,68,0.00,,,0.00,Wunderground v.1.15,2013-03-04 04:14:00,
2013-03-03 23:20:00,26.3,17.8,30.06,WNW,301,4.0,7.0,70,0.00,,,0.00,Wunderground v.1.15,2013-03-04 04:20:00,
2013-03-03 23:25:00,26.3,18.2,30.06,WNW,302,3.0,4.0,71,0.00,,,0.00,Wunderground v.1.15,2013-03-04 04:25:00,
2013-03-03 23:30:00,26.3,17.8,30.07,WNW,302,2.0,2.0,70,0.00,,,0.00,Wunderground v.1.15,2013-03-04 04:30:00,
2013-03-03 23:36:00,26.1,17.6,30.07,WNW,302,2.0,3.0,70,0.00,,,0.00,Wunderground v.1.15,2013-03-04 04:36:00,
2013-03-03 23:42:00,26.1,17.6,30.07,West,280,2.0,2.0,70,0.00,,,0.00,Wunderground v.1.15,2013-03-04 04:42:00,
2013-03-03 23:47:00,26.1,17.3,30.07,West,280,1.0,2.0,69,0.00,,,0.00,Wunderground v.1.15,2013-03-04 04:47:00,
2013-03-03 23:54:00,26.1,17.6,30.07,West,280,0.0,1.0,70,0.00,,,0.00,Wunderground v.1.15,2013-03-04 04:54:00,
2013-03-03 23:59:00,26.3,17.8,30.07,WNW,302,1.0,2.0,70,0.00,,,0.00,Wunderground v.1.15,2013-03-04 04:59:00,